createdAt,value
2017-07-21T00:01:03.119Z,77.57
2017-07-21T00:03:31.410Z,77.48
2017-07-21T00:06:00.121Z,77.84
2017-07-21T00:08:28.202Z,78.02
2017-07-21T00:10:56.942Z,77.62
2017-07-21T00:13:25.878Z,77.49
2017-07-21T00:15:53.998Z,77.65
2017-07-21T00:18:22.461Z,77.59
2017-07-21T00:20:50.843Z,77.53
2017-07-21T00:23:20.399Z,77.36
2017-07-21T00:25:48.851Z,77.54
2017-07-21T00:28:18.617Z,77.44
2017-07-21T00:30:47.041Z,77.53
2017-07-21T00:33:16.723Z,77.58
2017-07-21T00:35:45.596Z,77.65
2017-07-21T00:38:14.015Z,77.69
2017-07-21T00:40:42.383Z,77.80
2017-07-21T00:43:11.292Z,77.77
2017-07-21T00:45:39.979Z,77.87
2017-07-21T00:48:08.233Z,77.77
2017-07-21T00:50:37.074Z,78.11
2017-07-21T00:53:05.438Z,77.87
2017-07-21T00:55:33.967Z,77.89
2017-07-21T00:58:02.476Z,78.19
2017-07-21T01:00:30.935Z,78.25
2017-07-21T01:02:59.149Z,78.07
2017-07-21T01:05:27.911Z,78.17
2017-07-21T01:07:56.283Z,78.76
2017-07-21T01:10:24.998Z,78.66
2017-07-21T01:12:53.435Z,79.48
2017-07-21T01:15:21.499Z,78.74
2017-07-21T01:17:50.018Z,79.90
2017-07-21T01:20:21.059Z,80.17
2017-07-21T01:22:49.431Z,79.77
2017-07-21T01:25:20.043Z,79.27
2017-07-21T01:27:48.633Z,78.56
2017-07-21T01:30:20.405Z,78.34
2017-07-21T01:32:48.973Z,78.70
2017-07-21T01:35:19.454Z,78.26
2017-07-21T01:37:48.301Z,78.49
2017-07-21T01:40:18.827Z,78.18
2017-07-21T01:42:47.115Z,78.27
2017-07-21T01:45:16.666Z,77.94
2017-07-21T01:47:45.280Z,78.10
2017-07-21T01:50:13.382Z,77.69
2017-07-21T01:52:41.866Z,78.17
2017-07-21T01:55:10.174Z,77.58
2017-07-21T01:57:38.734Z,77.77
2017-07-21T02:00:08.998Z,77.82
2017-07-21T02:02:37.334Z,77.46
2017-07-21T02:05:05.523Z,77.33
2017-07-21T02:07:34.426Z,77.70
2017-07-21T02:10:02.957Z,77.23
2017-07-21T02:12:31.567Z,77.28
2017-07-21T02:14:59.946Z,77.23
2017-07-21T02:17:28.105Z,77.50
2017-07-21T02:19:56.564Z,77.30
2017-07-21T02:22:25.367Z,77.78
2017-07-21T02:24:53.964Z,77.78
2017-07-21T02:27:22.515Z,77.60
2017-07-21T02:29:50.889Z,77.03
2017-07-21T02:32:21.199Z,76.96
2017-07-21T02:34:49.845Z,75.78
2017-07-21T02:37:20.536Z,75.98
2017-07-21T02:39:49.136Z,76.25
2017-07-21T02:42:19.242Z,76.18
2017-07-21T02:44:47.936Z,75.65
2017-07-21T02:47:18.868Z,76.05
2017-07-21T02:49:46.933Z,75.65
2017-07-21T02:52:15.118Z,75.72
2017-07-21T02:54:43.911Z,75.97
2017-07-21T02:57:12.279Z,76.21
2017-07-21T02:59:40.795Z,75.81
2017-07-21T03:02:09.478Z,76.09
2017-07-21T03:04:37.729Z,76.09
2017-07-21T03:07:05.834Z,76.35
2017-07-21T03:09:34.271Z,76.30
2017-07-21T03:12:03.273Z,76.37
2017-07-21T03:14:31.869Z,76.36
2017-07-21T03:17:00.185Z,76.04
2017-07-21T03:19:28.746Z,76.10
2017-07-21T03:21:57.132Z,76.33
2017-07-21T03:24:25.623Z,76.50
2017-07-21T03:26:54.052Z,76.67
2017-07-21T03:29:23.034Z,77.00
2017-07-21T03:31:51.642Z,77.24
2017-07-21T03:34:21.663Z,77.27
2017-07-21T03:36:50.332Z,77.56
2017-07-21T03:39:20.939Z,77.47
2017-07-21T03:41:49.340Z,77.64
2017-07-21T03:44:20.587Z,77.31
2017-07-21T03:46:49.068Z,77.41
2017-07-21T03:49:19.607Z,77.53
2017-07-21T03:51:48.271Z,77.00
2017-07-21T03:54:18.608Z,77.48
2017-07-21T03:56:46.995Z,77.33
2017-07-21T03:59:15.279Z,77.08
2017-07-21T04:01:44.328Z,77.63
2017-07-21T04:04:12.736Z,77.08
2017-07-21T04:06:40.855Z,76.65
2017-07-21T04:09:09.787Z,76.82
2017-07-21T04:11:38.190Z,76.73
2017-07-21T04:14:06.446Z,77.02
2017-07-21T04:16:35.036Z,76.88
2017-07-21T04:19:03.719Z,76.81
2017-07-21T04:21:32.216Z,78.18
2017-07-21T04:24:00.395Z,77.57
2017-07-21T04:26:28.962Z,77.72
2017-07-21T04:28:57.509Z,77.51
2017-07-21T04:31:26.019Z,77.91
2017-07-21T04:33:54.402Z,78.07
2017-07-21T04:36:22.657Z,77.91
2017-07-21T04:38:51.570Z,77.60
2017-07-21T04:41:21.480Z,77.81
2017-07-21T04:43:50.070Z,77.93
2017-07-21T04:46:21.644Z,77.80
2017-07-21T04:48:49.815Z,77.49
2017-07-21T04:51:20.537Z,77.60
2017-07-21T04:53:49.503Z,77.80
2017-07-21T04:56:21.271Z,77.48
2017-07-21T04:58:49.427Z,77.30
2017-07-21T05:01:20.985Z,77.66
2017-07-21T05:03:49.345Z,77.44
2017-07-21T05:06:20.461Z,77.42
2017-07-21T05:08:49.082Z,77.41
2017-07-21T05:11:19.387Z,78.01
2017-07-21T05:13:47.714Z,78.33
2017-07-21T05:16:17.191Z,78.08
2017-07-21T05:18:45.600Z,77.68
2017-07-21T05:21:13.731Z,77.33
2017-07-21T05:23:42.131Z,76.99
2017-07-21T05:26:10.514Z,76.78
2017-07-21T05:28:38.791Z,77.79
2017-07-21T05:31:07.554Z,77.17
2017-07-21T05:33:35.852Z,76.76
2017-07-21T05:36:04.144Z,76.77
2017-07-21T05:38:32.868Z,76.75
2017-07-21T05:41:01.416Z,76.99
2017-07-21T05:43:29.691Z,76.86
2017-07-21T05:45:58.232Z,76.91
2017-07-21T05:48:26.274Z,77.07
2017-07-21T05:50:55.004Z,76.73
2017-07-21T05:53:25.078Z,76.18
2017-07-21T05:55:53.469Z,76.47
2017-07-21T05:58:21.986Z,75.80
2017-07-21T06:00:50.426Z,75.51
2017-07-21T06:03:20.854Z,75.60
2017-07-21T06:05:48.986Z,74.13
2017-07-21T06:08:19.468Z,73.31
2017-07-21T06:10:47.671Z,73.30
2017-07-21T06:13:18.403Z,71.84
2017-07-21T06:15:46.775Z,72.17
2017-07-21T06:18:14.956Z,72.98
2017-07-21T06:20:43.088Z,73.13
2017-07-21T06:23:11.456Z,72.45
2017-07-21T06:25:39.899Z,72.31
2017-07-21T06:28:08.074Z,72.51
2017-07-21T06:30:36.630Z,72.55
2017-07-21T06:33:05.028Z,71.28
2017-07-21T06:35:33.206Z,71.49
2017-07-21T06:38:01.902Z,71.42
2017-07-21T06:40:29.942Z,69.47
2017-07-21T06:42:58.527Z,69.75
2017-07-21T06:45:26.987Z,70.70
2017-07-21T06:47:55.074Z,69.23
2017-07-21T06:50:23.573Z,68.96
2017-07-21T06:52:52.579Z,69.91
2017-07-21T06:55:20.626Z,69.25
2017-07-21T06:57:48.904Z,70.66
2017-07-21T07:00:18.732Z,69.05
2017-07-21T07:02:47.219Z,68.50
2017-07-21T07:05:15.283Z,68.20
2017-07-21T07:07:44.259Z,67.72
2017-07-21T07:10:12.314Z,67.23
2017-07-21T07:12:40.378Z,67.53
2017-07-21T07:17:46.490Z,65.04
2017-07-21T07:20:14.822Z,65.04
2017-07-21T07:22:42.894Z,66.03
2017-07-21T07:25:11.100Z,65.10
2017-07-21T07:27:40.062Z,64.66
2017-07-21T07:30:09.726Z,66.68
2017-07-21T07:32:37.879Z,66.52
2017-07-21T07:35:06.938Z,66.37
2017-07-21T07:37:35.360Z,64.39
2017-07-21T07:40:03.626Z,63.54
2017-07-21T07:42:32.617Z,61.33
2017-07-21T07:45:01.193Z,61.41
2017-07-21T07:47:29.322Z,58.17
2017-07-21T07:49:58.378Z,58.03
2017-07-21T07:52:26.663Z,59.63
2017-07-21T07:54:55.014Z,57.89
2017-07-21T07:57:23.920Z,55.38
2017-07-21T07:59:52.386Z,54.73
2017-07-21T08:02:21.122Z,54.13
2017-07-21T08:04:49.449Z,54.64
2017-07-21T08:07:19.467Z,53.09
2017-07-21T08:09:47.534Z,54.18
2017-07-21T08:12:18.261Z,55.76
2017-07-21T08:14:46.977Z,58.47
2017-07-21T08:17:15.363Z,58.22
2017-07-21T08:19:44.088Z,57.83
2017-07-21T08:22:12.134Z,58.31
2017-07-21T08:24:40.218Z,57.96
2017-07-21T08:27:08.653Z,60.04
2017-07-21T08:29:36.762Z,56.76
2017-07-21T08:32:05.090Z,56.35
2017-07-21T08:34:33.723Z,54.67
2017-07-21T08:37:01.903Z,55.73
2017-07-21T08:39:30.116Z,56.41
2017-07-21T08:41:58.490Z,57.81
2017-07-21T08:44:26.601Z,59.07
2017-07-21T08:46:56.262Z,58.63
2017-07-21T08:49:24.652Z,59.86
2017-07-21T08:51:52.775Z,58.83
2017-07-21T08:54:20.893Z,58.58
2017-07-21T08:56:50.504Z,57.24
2017-07-21T08:59:20.015Z,55.48
2017-07-21T09:01:48.089Z,55.83
2017-07-21T09:04:17.842Z,54.05
2017-07-21T09:06:45.901Z,56.27
2017-07-21T09:09:13.975Z,54.96
2017-07-21T09:11:42.302Z,57.70
2017-07-21T09:14:10.419Z,59.23
2017-07-21T09:16:38.506Z,60.78
2017-07-21T09:19:07.557Z,59.79
2017-07-21T09:21:35.622Z,58.24
2017-07-21T09:24:03.723Z,58.56
2017-07-21T09:26:32.083Z,59.53
2017-07-21T09:29:00.125Z,59.49
2017-07-21T09:31:28.866Z,57.73
2017-07-21T09:33:57.446Z,59.74
2017-07-21T09:36:25.889Z,59.27
2017-07-21T09:38:53.926Z,57.05
2017-07-21T09:41:22.278Z,56.63
2017-07-21T09:43:50.642Z,56.33
2017-07-21T09:46:19.754Z,55.60
2017-07-21T09:48:48.121Z,55.10
2017-07-21T09:51:17.014Z,50.72
2017-07-21T09:53:45.273Z,52.34
2017-07-21T09:56:13.817Z,50.40
2017-07-21T09:58:41.885Z,49.27
2017-07-21T10:01:10.460Z,49.71
2017-07-21T10:03:38.798Z,52.74
2017-07-21T10:06:06.968Z,51.51
2017-07-21T10:08:35.051Z,48.40
2017-07-21T10:11:05.058Z,48.09
2017-07-21T10:13:33.229Z,48.85
2017-07-21T10:16:01.653Z,47.56
2017-07-21T10:18:30.023Z,46.97
2017-07-21T10:20:58.087Z,51.07
2017-07-21T10:23:26.155Z,48.58
2017-07-21T10:25:55.318Z,50.32
2017-07-21T10:28:23.459Z,47.35
2017-07-21T10:30:51.549Z,45.51
2017-07-21T10:33:21.006Z,49.60
2017-07-21T10:35:49.587Z,49.78
2017-07-21T10:38:18.547Z,50.10
2017-07-21T10:40:46.881Z,48.04
2017-07-21T10:43:14.970Z,47.98
2017-07-21T10:45:43.051Z,48.97
2017-07-21T10:48:11.379Z,47.95
2017-07-21T10:50:39.762Z,46.56
2017-07-21T10:53:07.875Z,47.58
2017-07-21T10:55:36.316Z,46.56
2017-07-21T10:58:04.455Z,45.45
2017-07-21T11:00:32.538Z,44.07
2017-07-21T11:03:00.918Z,45.77
2017-07-21T11:05:28.978Z,43.70
2017-07-21T11:07:57.041Z,44.50
2017-07-21T11:10:25.401Z,41.20
2017-07-21T11:12:53.459Z,42.99
2017-07-21T11:15:21.503Z,46.03
2017-07-21T11:17:49.886Z,44.20
2017-07-21T11:20:19.386Z,42.92
2017-07-21T11:22:47.471Z,42.26
2017-07-21T11:25:15.900Z,39.15
2017-07-21T11:27:43.986Z,37.58
2017-07-21T11:30:12.098Z,37.28
2017-07-21T11:32:40.560Z,39.20
2017-07-21T11:35:08.647Z,39.94
2017-07-21T11:37:36.708Z,38.33
2017-07-21T11:40:05.082Z,39.28
2017-07-21T11:42:33.489Z,37.13
2017-07-21T11:45:01.948Z,36.94
2017-07-21T11:47:30.709Z,35.46
2017-07-21T11:49:58.959Z,39.90
2017-07-21T11:52:27.000Z,41.94
2017-07-21T11:54:55.323Z,44.35
2017-07-21T11:57:23.633Z,45.18
2017-07-21T11:59:51.722Z,45.40
2017-07-21T12:02:21.851Z,45.03
2017-07-21T12:04:49.902Z,44.58
2017-07-21T12:07:19.326Z,46.72
2017-07-21T12:09:47.762Z,45.35
2017-07-21T12:12:16.774Z,46.23
2017-07-21T12:14:44.890Z,45.84
2017-07-21T12:17:13.248Z,46.66
2017-07-21T12:19:41.367Z,47.30
2017-07-21T12:22:09.502Z,46.13
2017-07-21T12:24:38.494Z,44.76
2017-07-21T12:27:06.903Z,45.51
2017-07-21T12:29:35.734Z,45.12
2017-07-21T12:32:04.095Z,46.13
2017-07-21T12:34:32.174Z,46.55
2017-07-21T12:37:00.262Z,47.50
2017-07-21T12:39:28.569Z,45.65
2017-07-21T12:41:56.683Z,46.86
2017-07-21T12:44:24.742Z,48.34
2017-07-21T12:46:53.124Z,48.36
2017-07-21T12:49:21.226Z,48.52
2017-07-21T12:51:49.318Z,47.78
2017-07-21T12:54:17.666Z,46.46
2017-07-21T12:56:45.752Z,45.58
2017-07-21T12:59:13.820Z,43.91
2017-07-21T13:01:42.201Z,44.42
2017-07-21T13:04:10.274Z,44.60
2017-07-21T13:06:38.731Z,42.90
2017-07-21T13:09:07.915Z,40.92
2017-07-21T13:11:36.007Z,41.18
2017-07-21T13:14:04.227Z,40.15
2017-07-21T13:16:32.571Z,37.86
2017-07-21T13:19:00.638Z,39.87
2017-07-21T13:21:28.743Z,36.36
2017-07-21T13:23:58.370Z,40.20
2017-07-21T13:26:26.494Z,38.54
2017-07-21T13:28:54.551Z,40.47
2017-07-21T13:31:22.882Z,40.82
2017-07-21T13:33:51.082Z,39.75
2017-07-21T13:36:20.179Z,40.81
2017-07-21T13:38:48.546Z,41.96
2017-07-21T13:41:17.635Z,43.21
2017-07-21T13:43:45.751Z,44.23
2017-07-21T13:46:14.178Z,43.62
2017-07-21T13:48:42.284Z,42.13
2017-07-21T13:51:10.367Z,45.05
2017-07-21T13:53:39.326Z,41.12
2017-07-21T13:56:07.404Z,42.20
2017-07-21T13:58:35.451Z,42.84
2017-07-21T14:01:03.821Z,41.68
2017-07-21T14:03:31.886Z,38.28
2017-07-21T14:05:59.953Z,36.93
2017-07-21T14:08:28.506Z,36.84
2017-07-21T14:10:57.282Z,36.42
2017-07-21T14:13:25.310Z,37.18
2017-07-21T14:15:53.651Z,39.77
2017-07-21T14:18:21.727Z,39.12
2017-07-21T14:20:49.805Z,37.08
2017-07-21T14:23:19.421Z,37.57
2017-07-21T14:25:47.496Z,34.77
2017-07-21T14:28:16.222Z,35.33
2017-07-21T14:30:44.695Z,38.33
2017-07-21T14:33:12.860Z,34.46
2017-07-21T14:35:41.067Z,34.84
2017-07-21T14:38:09.434Z,35.52
2017-07-21T14:40:37.736Z,37.45
2017-07-21T14:43:05.854Z,35.64
2017-07-21T14:45:34.259Z,35.03
2017-07-21T14:48:02.341Z,34.50
2017-07-21T14:50:30.405Z,34.22
2017-07-21T14:52:58.748Z,34.50
2017-07-21T14:55:27.069Z,35.66
2017-07-21T14:57:55.114Z,34.99
2017-07-21T15:00:23.484Z,38.36
2017-07-21T15:02:51.554Z,34.33
2017-07-21T15:05:20.027Z,34.03
2017-07-21T15:07:48.351Z,35.56
2017-07-21T15:10:17.887Z,33.79
2017-07-21T15:12:45.934Z,34.34
2017-07-21T15:15:14.278Z,35.41
2017-07-21T15:17:42.335Z,36.40
2017-07-21T15:20:10.391Z,39.75
2017-07-21T15:22:38.736Z,37.81
2017-07-21T15:25:06.778Z,38.67
2017-07-21T15:27:34.880Z,37.51
2017-07-21T15:30:03.972Z,36.18
2017-07-21T15:32:32.146Z,38.16
2017-07-21T15:35:00.222Z,35.19
2017-07-21T15:37:28.603Z,33.31
2017-07-21T15:39:56.678Z,34.39
2017-07-21T15:42:24.734Z,36.38
2017-07-21T15:44:53.182Z,37.77
2017-07-21T15:47:21.430Z,34.73
2017-07-21T15:49:49.723Z,34.04
2017-07-21T15:52:19.030Z,34.66
2017-07-21T15:54:47.227Z,34.58
2017-07-21T15:57:15.742Z,36.11
2017-07-21T15:59:44.117Z,34.68
2017-07-21T16:02:12.184Z,36.55
2017-07-21T16:04:40.235Z,36.33
2017-07-21T16:07:08.559Z,34.70
2017-07-21T16:09:36.618Z,34.73
2017-07-21T16:12:04.762Z,34.89
2017-07-21T16:14:33.114Z,35.65
2017-07-21T16:17:01.155Z,35.56
2017-07-21T16:19:29.223Z,39.94
2017-07-21T16:21:57.546Z,36.44
2017-07-21T16:24:25.751Z,38.01
2017-07-21T16:26:53.803Z,38.88
2017-07-21T16:29:22.122Z,36.13
2017-07-21T16:31:50.199Z,35.59
2017-07-21T16:34:19.702Z,36.26
2017-07-21T16:36:48.041Z,35.62
2017-07-21T16:39:17.019Z,37.57
2017-07-21T16:41:45.126Z,35.98
2017-07-21T16:44:13.479Z,35.74
2017-07-21T16:46:41.579Z,37.69
2017-07-21T16:49:09.770Z,35.16
2017-07-21T16:51:38.150Z,35.37
2017-07-21T16:54:06.591Z,34.99
2017-07-21T16:56:34.691Z,35.42
2017-07-21T16:59:03.034Z,40.49
2017-07-21T17:01:31.491Z,35.60
2017-07-21T17:03:59.905Z,37.29
2017-07-21T17:06:28.748Z,36.51
2017-07-21T17:08:56.826Z,34.61
2017-07-21T17:11:24.887Z,34.50
2017-07-21T17:13:53.207Z,35.91
2017-07-21T17:16:21.242Z,37.77
2017-07-21T17:18:49.324Z,38.16
2017-07-21T17:21:18.963Z,35.60
2017-07-21T17:23:47.092Z,35.22
2017-07-21T17:26:15.295Z,36.80
2017-07-21T17:28:43.667Z,40.41
2017-07-21T17:31:11.846Z,38.08
2017-07-21T17:33:39.903Z,43.00
2017-07-21T17:36:08.238Z,39.63
2017-07-21T17:38:36.355Z,38.40
2017-07-21T17:41:04.419Z,41.46
2017-07-21T17:43:32.799Z,38.29
2017-07-21T17:46:00.867Z,42.98
2017-07-21T17:48:28.954Z,37.30
2017-07-21T17:50:57.304Z,37.18
2017-07-21T17:53:25.366Z,36.30
2017-07-21T17:55:53.464Z,36.42
2017-07-21T17:58:21.843Z,36.94
2017-07-21T18:00:49.945Z,37.36
2017-07-21T18:03:18.863Z,38.41
2017-07-21T18:05:47.209Z,39.28
2017-07-21T18:08:15.288Z,37.91
2017-07-21T18:10:43.376Z,38.34
2017-07-21T18:13:11.738Z,41.05
2017-07-21T18:15:39.830Z,38.56
2017-07-21T18:18:08.006Z,37.50
2017-07-21T18:20:36.404Z,43.71
2017-07-21T18:23:04.472Z,42.55
2017-07-21T18:25:32.535Z,42.09
2017-07-21T18:28:00.927Z,42.58
2017-07-21T18:30:29.039Z,44.23
2017-07-21T18:32:57.104Z,42.61
2017-07-21T18:35:25.462Z,44.07
2017-07-21T18:37:53.544Z,43.58
2017-07-21T18:40:21.958Z,44.90
2017-07-21T18:42:50.298Z,48.56
2017-07-21T18:45:20.487Z,45.86
2017-07-21T18:47:49.823Z,46.13
2017-07-21T18:50:19.938Z,47.54
2017-07-21T18:52:48.062Z,46.17
2017-07-21T18:55:16.874Z,46.28
2017-07-21T18:57:45.255Z,47.28
2017-07-21T19:00:13.780Z,48.54
2017-07-21T19:02:41.842Z,47.57
2017-07-21T19:05:10.190Z,47.19
2017-07-21T19:07:38.264Z,50.06
2017-07-21T19:10:06.377Z,49.60
2017-07-21T19:12:35.972Z,50.69
2017-07-21T19:15:04.203Z,50.34
2017-07-21T19:17:32.287Z,50.84
2017-07-21T19:20:00.707Z,49.35
2017-07-21T19:22:30.118Z,49.16
2017-07-21T19:24:58.710Z,49.15
2017-07-21T19:27:27.138Z,49.51
2017-07-21T19:29:55.246Z,49.42
2017-07-21T19:32:24.026Z,50.55
2017-07-21T19:34:52.472Z,51.82
2017-07-21T19:37:21.139Z,52.61
2017-07-21T19:39:49.326Z,53.29
2017-07-21T19:42:19.379Z,53.36
2017-07-21T19:44:47.595Z,53.62
2017-07-21T19:47:15.724Z,54.14
2017-07-21T19:49:44.103Z,53.94
2017-07-21T19:52:12.234Z,54.18
2017-07-21T19:54:40.301Z,54.87
2017-07-21T19:57:08.736Z,54.69
2017-07-21T19:59:40.156Z,54.72
2017-07-21T20:02:08.235Z,54.91
2017-07-21T20:04:36.581Z,55.13
2017-07-21T20:07:04.638Z,55.45
2017-07-21T20:09:32.746Z,55.78
2017-07-21T20:12:01.140Z,55.72
2017-07-21T20:14:29.230Z,56.07
2017-07-21T20:16:57.910Z,55.93
2017-07-21T20:19:26.264Z,55.86
2017-07-21T20:21:54.727Z,56.28
2017-07-21T20:24:22.843Z,56.21
2017-07-21T20:26:51.208Z,55.94
2017-07-21T20:29:20.842Z,56.04
2017-07-21T20:31:48.903Z,55.83
2017-07-21T20:34:18.134Z,56.05
2017-07-21T20:36:46.193Z,58.90
2017-07-21T20:39:14.271Z,58.77
2017-07-21T20:41:42.919Z,59.23
2017-07-21T20:44:10.970Z,59.49
2017-07-21T20:46:39.046Z,59.17
2017-07-21T20:49:07.405Z,58.70
2017-07-21T20:51:36.075Z,58.75
2017-07-21T20:54:04.179Z,59.34
2017-07-21T20:56:32.606Z,61.07
2017-07-21T20:59:00.764Z,62.32
2017-07-21T21:01:28.880Z,62.29
2017-07-21T21:03:57.321Z,62.43
2017-07-21T21:06:25.487Z,62.04
2017-07-21T21:08:53.609Z,61.84
2017-07-21T21:11:22.898Z,60.92
2017-07-21T21:13:51.022Z,60.53
2017-07-21T21:16:20.616Z,60.66
2017-07-21T21:18:49.022Z,61.46
2017-07-21T21:21:18.476Z,62.45
2017-07-21T21:23:46.674Z,62.47
2017-07-21T21:26:15.068Z,62.46
2017-07-21T21:28:43.184Z,62.38
2017-07-21T21:31:11.406Z,62.47
2017-07-21T21:33:40.334Z,62.11
2017-07-21T21:36:08.870Z,61.80
2017-07-21T21:38:37.016Z,62.05
2017-07-21T21:41:05.455Z,62.04
2017-07-21T21:43:33.591Z,62.96
2017-07-21T21:46:01.667Z,64.20
2017-07-21T21:48:30.128Z,63.64
2017-07-21T21:50:58.280Z,63.09
2017-07-21T21:53:26.394Z,63.20
2017-07-21T21:55:54.779Z,63.30
2017-07-21T21:58:22.847Z,63.34
2017-07-21T22:00:50.938Z,63.38
2017-07-21T22:03:22.516Z,63.29
2017-07-21T22:05:50.635Z,63.62
2017-07-21T22:08:19.852Z,63.73
2017-07-21T22:10:51.411Z,64.06
2017-07-21T22:13:21.276Z,63.92
2017-07-21T22:15:55.734Z,64.21
2017-07-21T22:18:24.500Z,65.85
2017-07-21T22:20:52.962Z,65.03
2017-07-21T22:23:21.039Z,65.12
2017-07-21T22:25:49.540Z,66.85
2017-07-21T22:28:19.786Z,66.21
2017-07-21T22:30:48.090Z,65.47
2017-07-21T22:33:17.522Z,64.86
2017-07-21T22:35:45.766Z,64.74
2017-07-21T22:38:13.858Z,64.76
2017-07-21T22:40:42.269Z,64.31
2017-07-21T22:43:10.383Z,64.67
2017-07-21T22:45:38.898Z,64.63
2017-07-21T22:48:07.251Z,64.79
2017-07-21T22:50:35.967Z,64.57
2017-07-21T22:53:04.824Z,64.58
2017-07-21T22:55:34.472Z,64.64
2017-07-21T22:58:07.147Z,65.07
2017-07-21T23:00:36.319Z,65.75
2017-07-21T23:03:08.996Z,65.04
2017-07-21T23:05:40.519Z,64.95
2017-07-21T23:08:10.376Z,64.67
2017-07-21T23:10:43.071Z,64.43
2017-07-21T23:13:11.468Z,64.32
2017-07-21T23:15:39.932Z,64.43
2017-07-21T23:18:08.371Z,64.35
2017-07-21T23:20:36.466Z,66.13
2017-07-21T23:23:05.054Z,67.09
2017-07-21T23:25:33.363Z,67.46
2017-07-21T23:28:01.433Z,67.70
2017-07-21T23:30:29.871Z,68.71
2017-07-21T23:32:58.551Z,69.37
2017-07-21T23:35:26.591Z,69.71
2017-07-21T23:37:55.196Z,69.80
2017-07-21T23:40:23.546Z,69.99
2017-07-21T23:42:51.650Z,69.92
2017-07-21T23:45:20.456Z,71.57
2017-07-21T23:47:48.783Z,71.21
2017-07-21T23:50:18.595Z,71.12
2017-07-21T23:52:47.334Z,72.96
2017-07-21T23:55:15.698Z,73.25
2017-07-21T23:57:43.859Z,70.91
